Time;durP1;ratioP1;P1;durP2;ratioP2;P2;SDS_P1;SDS_P2;PMS_P1;PMS_P2;Temp;Humidity;BMP_temperature;BMP_pressure;BME280_temperature;BME280_humidity;BME280_pressure;Samples;Min_cycle;Max_cycle;Signal;HPM_P1;HPM_P2
2022/04/16 00:00:27;;;;;;;23.58;10.40;;;;;;;;;;5093423;28;20048;-76
2022/04/16 00:02:54;;;;;;;28.83;13.18;;;;;;;;;;5093660;28;20065;-76
2022/04/16 00:05:21;;;;;;;29.13;13.00;;;;;;;;;;5093614;28;20044;-76
2022/04/16 00:08:06;;;;;;;27.38;11.57;;;;;;;;;;5093804;28;20071;-75
2022/04/16 00:10:32;;;;;;;26.35;12.30;;;;;;;;;;5093662;28;20040;-75
2022/04/16 00:12:59;;;;;;;20.70;10.85;;;;;;;;;;5093838;28;20043;-76
2022/04/16 00:15:26;;;;;;;20.60;11.07;;;;;;;;;;5095709;28;20143;-76
2022/04/16 00:17:52;;;;;;;26.13;11.45;;;;;;;;;;5080977;28;20109;-75
2022/04/16 00:20:18;;;;;;;22.13;11.23;;;;;;;;;;5080652;28;20035;-76
2022/04/16 00:22:44;;;;;;;20.83;11.00;;;;;;;;;;5080746;28;20489;-76
2022/04/16 00:25:13;;;;;;;22.58;12.05;;;;;;;;;;5080756;28;20036;-75
2022/04/16 00:27:39;;;;;;;20.27;10.65;;;;;;;;;;5097473;28;20497;-76
2022/04/16 00:30:05;;;;;;;25.55;11.23;;;;;;;;;;5080753;28;20043;-76
2022/04/16 00:32:31;;;;;;;23.50;10.80;;;;;;;;;;5097220;28;20148;-76
2022/04/16 00:34:57;;;;;;;24.50;10.85;;;;;;;;;;5080521;28;20479;-75
2022/04/16 00:37:23;;;;;;;26.48;11.70;;;;;;;;;;5097344;28;20032;-75
2022/04/16 00:39:49;;;;;;;25.00;10.50;;;;;;;;;;5097388;28;20043;-75
2022/04/16 00:42:15;;;;;;;19.88;11.05;;;;;;;;;;5079914;28;20453;-76
2022/04/16 00:44:41;;;;;;;32.35;13.00;;;;;;;;;;5079777;28;20063;-75
2022/04/16 00:47:07;;;;;;;25.25;12.18;;;;;;;;;;5080299;28;20055;-75
2022/04/16 00:49:33;;;;;;;23.80;11.80;;;;;;;;;;5080099;28;20036;-75
2022/04/16 00:52:01;;;;;;;27.67;11.38;;;;;;;;;;5079917;28;20054;-75
2022/04/16 00:54:27;;;;;;;23.00;10.50;;;;;;;;;;5079905;28;20035;-75
2022/04/16 00:56:53;;;;;;;30.95;13.85;;;;;;;;;;5079879;28;20095;-76
2022/04/16 00:59:19;;;;;;;23.08;11.70;;;;;;;;;;5079743;28;20036;-75
2022/04/16 01:01:45;;;;;;;21.10;11.43;;;;;;;;;;5096285;28;20036;-75
2022/04/16 01:04:11;;;;;;;26.45;12.65;;;;;;;;;;5096695;28;20480;-75
2022/04/16 01:06:38;;;;;;;26.05;12.40;;;;;;;;;;5079789;28;20039;-75
2022/04/16 01:09:04;;;;;;;25.88;11.85;;;;;;;;;;5079832;28;20051;-75
2022/04/16 01:11:32;;;;;;;23.38;10.38;;;;;;;;;;5079770;28;20043;-76
2022/04/16 01:13:59;;;;;;;23.10;11.40;;;;;;;;;;5079513;28;20409;-75
2022/04/16 01:16:25;;;;;;;26.98;12.23;;;;;;;;;;5079768;28;20079;-76
2022/04/16 01:18:52;;;;;;;33.97;12.57;;;;;;;;;;5079512;28;20071;-75
2022/04/16 01:21:18;;;;;;;33.47;12.85;;;;;;;;;;5096318;28;20495;-76
2022/04/16 01:23:44;;;;;;;30.88;13.50;;;;;;;;;;5096301;28;20088;-75
2022/04/16 01:26:10;;;;;;;28.25;12.98;;;;;;;;;;5079142;28;20555;-75
2022/04/16 01:28:36;;;;;;;35.15;16.50;;;;;;;;;;5096343;28;20047;-75
2022/04/16 01:31:02;;;;;;;30.85;13.68;;;;;;;;;;5079288;28;20047;-75
2022/04/16 01:33:30;;;;;;;34.22;13.60;;;;;;;;;;5096112;28;20048;-76
2022/04/16 01:35:56;;;;;;;27.65;12.10;;;;;;;;;;5079150;28;20035;-76
2022/04/16 01:38:25;;;;;;;28.73;12.25;;;;;;;;;;5096345;28;20130;-74
2022/04/16 01:40:53;;;;;;;32.03;12.68;;;;;;;;;;5079086;28;20126;-75
2022/04/16 01:43:19;;;;;;;28.08;13.25;;;;;;;;;;5095589;28;20428;-75
2022/04/16 01:45:49;;;;;;;27.90;12.60;;;;;;;;;;5079082;28;20039;-76
2022/04/16 01:48:15;;;;;;;27.67;12.73;;;;;;;;;;5096142;28;20036;-76
2022/04/16 01:50:41;;;;;;;23.88;10.80;;;;;;;;;;5078827;28;20039;-76
2022/04/16 01:53:07;;;;;;;29.30;13.10;;;;;;;;;;5078777;28;20487;-76
2022/04/16 01:55:33;;;;;;;23.98;11.93;;;;;;;;;;5078817;28;20480;-76
2022/04/16 01:57:59;;;;;;;28.13;11.75;;;;;;;;;;5095503;28;20043;-76
2022/04/16 02:00:25;;;;;;;26.05;11.77;;;;;;;;;;5093039;28;20044;-76
2022/04/16 02:02:51;;;;;;;26.85;12.98;;;;;;;;;;5077864;28;20131;-76
2022/04/16 02:05:17;;;;;;;27.90;11.88;;;;;;;;;;5094980;28;20074;-76
2022/04/16 02:07:43;;;;;;;27.38;13.13;;;;;;;;;;5095522;28;20075;-76
2022/04/16 02:10:12;;;;;;;27.08;13.02;;;;;;;;;;5078470;28;20085;-76
2022/04/16 02:12:38;;;;;;;28.85;13.30;;;;;;;;;;5086689;27;20039;-76
2022/04/16 02:15:08;;;;;;;27.65;12.77;;;;;;;;;;5088427;27;20076;-76
2022/04/16 02:17:34;;;;;;;28.63;12.63;;;;;;;;;;5104021;28;20039;-76
2022/04/16 02:20:00;;;;;;;27.95;12.88;;;;;;;;;;5105250;27;20070;-76
2022/04/16 02:22:26;;;;;;;28.77;13.18;;;;;;;;;;5088666;27;20078;-76
2022/04/16 02:24:52;;;;;;;24.65;11.35;;;;;;;;;;5103711;28;20391;-75
2022/04/16 02:27:18;;;;;;;26.75;12.45;;;;;;;;;;5105628;27;20067;-75
2022/04/16 02:29:44;;;;;;;31.23;13.45;;;;;;;;;;5088287;27;20036;-76
2022/04/16 02:32:11;;;;;;;28.38;12.30;;;;;;;;;;5103613;27;20046;-77
2022/04/16 02:34:37;;;;;;;31.50;14.00;;;;;;;;;;5101419;27;20036;-76
2022/04/16 02:37:03;;;;;;;28.80;12.15;;;;;;;;;;5104550;28;20035;-76
2022/04/16 02:39:29;;;;;;;28.00;12.60;;;;;;;;;;5105500;27;20441;-75
2022/04/16 02:41:55;;;;;;;29.55;14.02;;;;;;;;;;5103069;27;20039;-76
2022/04/16 02:47:05;;;;;;;33.47;14.82;;;;;;;;;;5103372;27;20039;-76
2022/04/16 02:49:33;;;;;;;31.55;14.05;;;;;;;;;;5103347;27;20483;-76
2022/04/16 02:51:59;;;;;;;31.63;13.10;;;;;;;;;;5104861;27;20078;-76
2022/04/16 02:54:25;;;;;;;29.58;13.50;;;;;;;;;;5087722;27;20434;-76
2022/04/16 02:56:51;;;;;;;33.28;14.65;;;;;;;;;;5103335;28;20510;-76
2022/04/16 02:59:17;;;;;;;35.10;17.13;;;;;;;;;;5105027;27;20487;-76
2022/04/16 03:01:43;;;;;;;38.03;15.45;;;;;;;;;;5087231;27;20051;-76
2022/04/16 03:04:09;;;;;;;37.10;15.52;;;;;;;;;;5103435;27;20035;-76
2022/04/16 03:06:35;;;;;;;37.10;15.80;;;;;;;;;;5088420;27;20108;-76
2022/04/16 03:09:01;;;;;;;41.88;18.55;;;;;;;;;;5103976;27;20040;-76
2022/04/16 03:11:27;;;;;;;36.40;16.42;;;;;;;;;;5103849;27;20035;-76
2022/04/16 03:13:53;;;;;;;32.85;15.82;;;;;;;;;;5105300;27;20064;-75
2022/04/16 03:19:04;;;;;;;34.28;15.35;;;;;;;;;;5102103;27;20039;-75
2022/04/16 03:21:30;;;;;;;40.38;15.63;;;;;;;;;;5097425;28;20540;-76
2022/04/16 03:23:56;;;;;;;33.72;15.88;;;;;;;;;;5094395;28;20445;-75
2022/04/16 03:26:22;;;;;;;40.72;18.98;;;;;;;;;;5094026;28;20031;-77
2022/04/16 03:28:48;;;;;;;41.28;16.08;;;;;;;;;;5077171;28;20031;-76
2022/04/16 03:31:14;;;;;;;43.15;18.25;;;;;;;;;;5077051;28;20461;-76
2022/04/16 03:33:40;;;;;;;43.13;19.40;;;;;;;;;;5077018;28;20095;-75
2022/04/16 03:36:07;;;;;;;42.63;19.38;;;;;;;;;;5077008;28;20035;-76
2022/04/16 03:38:33;;;;;;;42.88;20.08;;;;;;;;;;5076971;28;20068;-76
2022/04/16 03:40:59;;;;;;;46.35;18.90;;;;;;;;;;5093624;28;20040;-76
2022/04/16 03:43:29;;;;;;;42.92;18.23;;;;;;;;;;5065230;28;20059;-75
2022/04/16 03:45:55;;;;;;;46.55;19.48;;;;;;;;;;5070455;28;20510;-75
2022/04/16 03:48:21;;;;;;;48.33;20.20;;;;;;;;;;5053367;28;20067;-75
2022/04/16 03:50:47;;;;;;;46.55;20.20;;;;;;;;;;5070197;28;20033;-76
2022/04/16 03:53:13;;;;;;;45.70;19.63;;;;;;;;;;5053353;28;20036;-76
2022/04/16 04:01:08;;;;;;;50.88;19.63;;;;;;;;;;5069991;28;20404;-75
2022/04/16 04:03:36;;;;;;;45.47;21.17;;;;;;;;;;5070312;28;20044;-76
2022/04/16 04:06:02;;;;;;;43.67;19.10;;;;;;;;;;5053309;28;20037;-76
2022/04/16 04:08:28;;;;;;;41.42;18.77;;;;;;;;;;5069992;28;20602;-76
2022/04/16 04:10:54;;;;;;;42.70;19.00;;;;;;;;;;5069963;28;20123;-76
2022/04/16 04:13:20;;;;;;;41.45;18.92;;;;;;;;;;5053512;28;20129;-76
2022/04/16 04:15:46;;;;;;;40.47;19.27;;;;;;;;;;5053390;28;20042;-76
2022/04/16 04:18:12;;;;;;;40.38;17.48;;;;;;;;;;5053230;28;20381;-76
2022/04/16 04:20:39;;;;;;;43.40;19.55;;;;;;;;;;5069839;28;20500;-76
2022/04/16 04:23:05;;;;;;;41.97;18.02;;;;;;;;;;5070051;28;20047;-76
2022/04/16 04:25:31;;;;;;;39.85;17.83;;;;;;;;;;5070118;28;20054;-76
2022/04/16 04:27:57;;;;;;;34.70;17.25;;;;;;;;;;5052970;28;20040;-76
2022/04/16 04:30:23;;;;;;;40.88;18.00;;;;;;;;;;5053428;28;20041;-76
2022/04/16 04:32:49;;;;;;;41.58;16.77;;;;;;;;;;5070011;28;20497;-76
2022/04/16 04:35:15;;;;;;;39.10;16.65;;;;;;;;;;5052966;28;20041;-76
2022/04/16 04:37:42;;;;;;;39.28;17.45;;;;;;;;;;5053005;28;20050;-76
2022/04/16 04:40:08;;;;;;;34.58;16.90;;;;;;;;;;5069534;28;20044;-76
2022/04/16 04:42:35;;;;;;;28.42;14.40;;;;;;;;;;5054351;28;20482;-76
2022/04/16 04:45:08;;;;;;;29.33;14.35;;;;;;;;;;5076482;28;20126;-76
2022/04/16 04:47:34;;;;;;;26.33;12.55;;;;;;;;;;5076312;28;20050;-76
2022/04/16 04:50:00;;;;;;;33.25;13.85;;;;;;;;;;5079624;28;20122;-76
2022/04/16 04:52:26;;;;;;;35.38;13.93;;;;;;;;;;5103717;28;20066;-76
2022/04/16 04:54:56;;;;;;;28.70;14.45;;;;;;;;;;5086437;28;20042;-76
2022/04/16 04:57:22;;;;;;;28.55;13.18;;;;;;;;;;5101657;28;20043;-76
2022/04/16 04:59:48;;;;;;;27.92;12.40;;;;;;;;;;5103111;28;20027;-76
2022/04/16 05:02:14;;;;;;;27.77;13.55;;;;;;;;;;5089384;27;20039;-76
2022/04/16 05:04:40;;;;;;;25.40;13.40;;;;;;;;;;5105625;27;20487;-76
2022/04/16 05:07:07;;;;;;;27.02;12.65;;;;;;;;;;5098851;28;20035;-76
2022/04/16 05:09:33;;;;;;;30.92;13.27;;;;;;;;;;5079625;28;20040;-76
2022/04/16 05:11:59;;;;;;;26.98;12.95;;;;;;;;;;5080168;28;20065;-75
2022/04/16 05:14:25;;;;;;;21.98;11.02;;;;;;;;;;5079551;28;20035;-76
2022/04/16 05:16:51;;;;;;;23.35;10.75;;;;;;;;;;5079596;28;20046;-76
2022/04/16 05:19:17;;;;;;;18.40;9.55;;;;;;;;;;5079526;28;20043;-76
2022/04/16 05:21:43;;;;;;;18.27;9.63;;;;;;;;;;5079467;28;20252;-76
2022/04/16 05:24:10;;;;;;;21.67;10.70;;;;;;;;;;5096411;28;20043;-76
2022/04/16 05:26:38;;;;;;;23.02;11.00;;;;;;;;;;5096089;28;20044;-75
2022/04/16 05:29:04;;;;;;;18.20;9.73;;;;;;;;;;5096414;28;20558;-76
2022/04/16 05:31:30;;;;;;;18.63;10.02;;;;;;;;;;5079396;28;20483;-76
2022/04/16 05:36:42;;;;;;;18.92;10.15;;;;;;;;;;5096292;28;20050;-76
2022/04/16 05:39:08;;;;;;;20.45;11.00;;;;;;;;;;5079589;28;20039;-75
2022/04/16 05:41:34;;;;;;;22.88;10.85;;;;;;;;;;5079696;28;20039;-76
2022/04/16 05:44:00;;;;;;;19.92;10.07;;;;;;;;;;5079424;28;20113;-76
2022/04/16 05:46:26;;;;;;;22.65;9.80;;;;;;;;;;5096527;28;20526;-76
2022/04/16 05:48:52;;;;;;;20.83;9.00;;;;;;;;;;5079734;28;20042;-76
2022/04/16 05:51:22;;;;;;;19.63;9.27;;;;;;;;;;5079819;28;20487;-76
2022/04/16 05:53:49;;;;;;;14.52;7.97;;;;;;;;;;5079964;28;20046;-76
2022/04/16 05:56:15;;;;;;;16.65;9.57;;;;;;;;;;5078576;28;20039;-76
2022/04/16 05:58:42;;;;;;;16.55;7.95;;;;;;;;;;5095763;28;20126;-76
2022/04/16 06:01:08;;;;;;;18.27;8.40;;;;;;;;;;5078686;28;20137;-76
2022/04/16 06:03:34;;;;;;;21.10;9.55;;;;;;;;;;5079005;28;20126;-76
2022/04/16 06:06:01;;;;;;;18.13;8.63;;;;;;;;;;5095365;28;20050;-76
2022/04/16 06:08:27;;;;;;;17.10;9.25;;;;;;;;;;5095390;28;20438;-76
2022/04/16 06:10:53;;;;;;;16.98;8.02;;;;;;;;;;5078880;28;20172;-76
2022/04/16 06:13:19;;;;;;;16.35;8.15;;;;;;;;;;5077679;28;20587;-76
2022/04/16 06:15:44;;;;;;;14.60;8.10;;;;;;;;;;5078522;28;20047;-76
2022/04/16 06:18:11;;;;;;;14.90;8.35;;;;;;;;;;5078624;28;20044;-76
2022/04/16 06:20:37;;;;;;;17.42;8.45;;;;;;;;;;5078501;28;20039;-77
2022/04/16 06:23:04;;;;;;;13.10;6.78;;;;;;;;;;5078136;28;20035;-77
2022/04/16 06:25:30;;;;;;;13.52;6.78;;;;;;;;;;5078177;28;20036;-76
2022/04/16 06:27:56;;;;;;;14.07;7.15;;;;;;;;;;5078100;28;20050;-77
2022/04/16 06:30:22;;;;;;;13.35;6.60;;;;;;;;;;5078052;28;20061;-76
2022/04/16 06:32:48;;;;;;;11.90;6.50;;;;;;;;;;5077995;28;20035;-77
2022/04/16 06:35:14;;;;;;;10.13;4.75;;;;;;;;;;5077838;28;20039;-77
2022/04/16 06:37:41;;;;;;;7.88;4.22;;;;;;;;;;5077937;28;20499;-77
2022/04/16 06:40:08;;;;;;;8.40;4.18;;;;;;;;;;5078051;28;20049;-76
2022/04/16 06:42:34;;;;;;;9.27;4.53;;;;;;;;;;5077737;28;20043;-76
2022/04/16 06:45:00;;;;;;;7.78;4.63;;;;;;;;;;5094653;28;20085;-77
2022/04/16 06:47:29;;;;;;;8.05;4.00;;;;;;;;;;5077562;28;20039;-77
2022/04/16 06:49:55;;;;;;;7.00;3.50;;;;;;;;;;5077688;28;20044;-77
2022/04/16 06:52:21;;;;;;;8.52;3.83;;;;;;;;;;5094554;28;20372;-77
2022/04/16 06:54:47;;;;;;;7.53;4.47;;;;;;;;;;5093357;28;20127;-77
2022/04/16 06:57:13;;;;;;;9.35;4.47;;;;;;;;;;5074246;28;20036;-77
2022/04/16 06:59:40;;;;;;;10.23;5.50;;;;;;;;;;5073580;28;20062;-77
2022/04/16 07:02:06;;;;;;;11.63;6.18;;;;;;;;;;5073994;28;20047;-77
2022/04/16 07:04:32;;;;;;;14.13;7.55;;;;;;;;;;5074115;28;20100;-77
2022/04/16 07:06:58;;;;;;;13.65;6.95;;;;;;;;;;5090684;28;20035;-77
2022/04/16 07:09:24;;;;;;;12.60;8.20;;;;;;;;;;5090666;28;20040;-77
2022/04/16 07:11:50;;;;;;;13.57;10.25;;;;;;;;;;5090683;28;20158;-76
2022/04/16 07:14:16;;;;;;;12.43;6.90;;;;;;;;;;5090973;28;20127;-78
2022/04/16 07:16:42;;;;;;;12.18;9.85;;;;;;;;;;5073794;28;20047;-77
2022/04/16 07:19:12;;;;;;;13.32;9.60;;;;;;;;;;5090849;28;20330;-78
2022/04/16 07:21:38;;;;;;;10.57;8.98;;;;;;;;;;5090686;28;20043;-78
2022/04/16 07:24:04;;;;;;;11.85;6.32;;;;;;;;;;5073195;28;20040;-78
2022/04/16 07:26:30;;;;;;;12.38;9.30;;;;;;;;;;5090342;28;20097;-78
2022/04/16 07:28:56;;;;;;;11.60;8.82;;;;;;;;;;5073507;28;20074;-78
2022/04/16 07:31:22;;;;;;;13.45;9.98;;;;;;;;;;5091759;28;20452;-78
2022/04/16 07:33:48;;;;;;;12.50;8.88;;;;;;;;;;5077187;28;20064;-78
2022/04/16 07:36:14;;;;;;;13.45;10.15;;;;;;;;;;5077465;28;20091;-76
2022/04/16 07:38:43;;;;;;;12.15;9.00;;;;;;;;;;5094585;28;20362;-79
2022/04/16 07:41:12;;;;;;;8.20;6.57;;;;;;;;;;5093705;28;20109;-78
2022/04/16 07:43:38;;;;;;;10.85;7.60;;;;;;;;;;5063429;28;20553;-77
2022/04/16 07:46:04;;;;;;;7.43;6.53;;;;;;;;;;5053722;28;20040;-79
2022/04/16 07:48:30;;;;;;;11.70;9.18;;;;;;;;;;5070853;28;20044;-77
2022/04/16 07:50:56;;;;;;;11.07;8.35;;;;;;;;;;5053541;28;20459;-78
2022/04/16 07:53:22;;;;;;;11.63;8.80;;;;;;;;;;5070791;28;20045;-77
2022/04/16 07:55:48;;;;;;;8.85;7.60;;;;;;;;;;5054033;28;20101;-77
2022/04/16 07:58:14;;;;;;;8.25;6.32;;;;;;;;;;5054180;28;20055;-76
2022/04/16 08:00:40;;;;;;;8.80;6.55;;;;;;;;;;5053629;28;20098;-77
2022/04/16 08:03:06;;;;;;;10.00;7.90;;;;;;;;;;5070673;28;20040;-77
2022/04/16 08:05:32;;;;;;;5.88;4.65;;;;;;;;;;5070362;28;20435;-78
2022/04/16 08:07:58;;;;;;;9.07;5.47;;;;;;;;;;5053448;28;20086;-78
2022/04/16 08:10:24;;;;;;;9.77;6.10;;;;;;;;;;5053953;28;20048;-78
2022/04/16 08:12:50;;;;;;;11.13;7.45;;;;;;;;;;5070184;28;20051;-78
2022/04/16 08:15:16;;;;;;;9.82;6.45;;;;;;;;;;5053526;28;20121;-78
2022/04/16 08:17:42;;;;;;;5.85;4.30;;;;;;;;;;5053316;28;20044;-78
2022/04/16 08:20:09;;;;;;;7.40;4.90;;;;;;;;;;5069771;28;20044;-78
2022/04/16 08:22:35;;;;;;;6.82;4.57;;;;;;;;;;5069887;28;20047;-77
2022/04/16 08:27:46;;;;;;;6.28;3.83;;;;;;;;;;5054925;28;20037;-78
2022/04/16 08:30:13;;;;;;;7.55;3.85;;;;;;;;;;5050214;28;20041;-79
2022/04/16 08:32:41;;;;;;;5.07;4.07;;;;;;;;;;5033232;28;20044;-78
2022/04/16 08:35:08;;;;;;;4.38;3.50;;;;;;;;;;5033190;28;20037;-78
2022/04/16 08:37:34;;;;;;;4.32;3.33;;;;;;;;;;5053791;28;20033;-78
2022/04/16 08:40:00;;;;;;;4.55;3.28;;;;;;;;;;5053158;28;20043;-77
2022/04/16 08:42:26;;;;;;;4.03;3.10;;;;;;;;;;5053098;28;20070;-78
2022/04/16 08:44:52;;;;;;;4.05;3.10;;;;;;;;;;5076239;28;20052;-78
2022/04/16 08:47:18;;;;;;;6.13;3.65;;;;;;;;;;5060001;28;20055;-78
2022/04/16 08:49:44;;;;;;;3.65;2.80;;;;;;;;;;5060184;28;20044;-78
2022/04/16 08:52:12;;;;;;;4.70;2.78;;;;;;;;;;5076841;28;20052;-78
2022/04/16 08:54:41;;;;;;;6.57;3.50;;;;;;;;;;5059768;28;20439;-78
2022/04/16 08:57:07;;;;;;;5.60;3.10;;;;;;;;;;5076657;28;20039;-78
2022/04/16 08:59:33;;;;;;;4.30;2.80;;;;;;;;;;5077247;28;20089;-77
2022/04/16 09:01:59;;;;;;;3.72;3.00;;;;;;;;;;5060569;28;20044;-78
2022/04/16 09:04:28;;;;;;;2.97;2.67;;;;;;;;;;5060749;28;20028;-79
2022/04/16 09:07:01;;;;;;;3.58;2.30;;;;;;;;;;5076560;28;20123;-78
2022/04/16 09:09:28;;;;;;;3.08;2.03;;;;;;;;;;5059637;28;20043;-78
2022/04/16 09:11:54;;;;;;;3.05;1.95;;;;;;;;;;5076434;28;20450;-78
2022/04/16 09:14:20;;;;;;;3.55;2.30;;;;;;;;;;5076319;28;20039;-78
2022/04/16 09:16:46;;;;;;;2.53;1.70;;;;;;;;;;5059474;28;20082;-78
2022/04/16 09:19:16;;;;;;;5.10;2.50;;;;;;;;;;5076409;28;20040;-78
2022/04/16 09:21:43;;;;;;;2.73;1.63;;;;;;;;;;5059531;28;20036;-78
2022/04/16 09:24:09;;;;;;;2.20;1.95;;;;;;;;;;5076010;28;20415;-78
2022/04/16 09:26:36;;;;;;;2.97;2.13;;;;;;;;;;5059297;28;20131;-77
2022/04/16 09:29:06;;;;;;;1.92;1.70;;;;;;;;;;5059589;28;20039;-78
2022/04/16 09:31:33;;;;;;;2.55;1.30;;;;;;;;;;5075857;28;20047;-77
2022/04/16 09:33:59;;;;;;;2.25;1.60;;;;;;;;;;5059397;28;20130;-78
2022/04/16 09:36:29;;;;;;;1.65;1.50;;;;;;;;;;5076033;28;20552;-77
2022/04/16 09:39:04;;;;;;;2.10;1.07;;;;;;;;;;5076478;28;20051;-77
2022/04/16 09:41:38;;;;;;;1.52;1.30;;;;;;;;;;5059799;28;20511;-77
2022/04/16 09:44:04;;;;;;;1.50;1.17;;;;;;;;;;5076277;28;20496;-77
2022/04/16 09:46:31;;;;;;;1.30;1.10;;;;;;;;;;5076357;28;20051;-77
2022/04/16 09:49:04;;;;;;;5.22;2.05;;;;;;;;;;5059798;28;20044;-76
2022/04/16 09:51:33;;;;;;;3.47;1.70;;;;;;;;;;5060069;28;20040;-77
2022/04/16 09:53:59;;;;;;;1.70;1.10;;;;;;;;;;5059532;28;20062;-77
2022/04/16 09:56:28;;;;;;;2.28;0.90;;;;;;;;;;5076495;28;20044;-79
2022/04/16 09:58:56;;;;;;;2.40;1.08;;;;;;;;;;5059740;28;20093;-76
2022/04/16 10:01:23;;;;;;;2.00;1.13;;;;;;;;;;5059769;28;20464;-77
2022/04/16 10:03:50;;;;;;;1.85;0.95;;;;;;;;;;5059741;28;20097;-77
2022/04/16 10:06:17;;;;;;;1.02;0.90;;;;;;;;;;5059886;28;20036;-78
2022/04/16 10:08:43;;;;;;;1.35;0.98;;;;;;;;;;5076299;28;20503;-77
2022/04/16 10:11:19;;;;;;;2.22;1.40;;;;;;;;;;5059693;28;20040;-77
2022/04/16 10:13:49;;;;;;;2.00;1.00;;;;;;;;;;5059306;28;20044;-77
2022/04/16 10:16:22;;;;;;;1.63;1.08;;;;;;;;;;5059896;28;20487;-78
2022/04/16 10:18:49;;;;;;;1.38;0.88;;;;;;;;;;5076360;28;20044;-77
2022/04/16 10:21:16;;;;;;;1.67;1.15;;;;;;;;;;5076184;28;20075;-77
2022/04/16 10:23:42;;;;;;;1.55;1.00;;;;;;;;;;5059528;28;20067;-77
2022/04/16 10:26:12;;;;;;;2.80;1.10;;;;;;;;;;5075841;28;20122;-76
2022/04/16 10:28:43;;;;;;;1.05;0.80;;;;;;;;;;5075842;28;20467;-76
2022/04/16 10:31:24;;;;;;;1.02;0.80;;;;;;;;;;5075951;28;20040;-76
2022/04/16 10:34:01;;;;;;;2.20;1.20;;;;;;;;;;5059267;28;20083;-77
2022/04/16 10:36:27;;;;;;;1.25;1.00;;;;;;;;;;5075126;28;20514;-77
2022/04/16 10:38:53;;;;;;;1.50;1.35;;;;;;;;;;5058154;28;20043;-76
2022/04/16 10:41:21;;;;;;;1.77;0.88;;;;;;;;;;5057632;28;20039;-77
2022/04/16 10:43:55;;;;;;;2.53;1.15;;;;;;;;;;5058456;28;20101;-78
2022/04/16 10:46:21;;;;;;;1.42;1.02;;;;;;;;;;5075367;28;20040;-77
2022/04/16 10:48:49;;;;;;;1.38;0.88;;;;;;;;;;5075221;28;20043;-76
2022/04/16 10:51:18;;;;;;;1.38;1.13;;;;;;;;;;5058243;28;20492;-75
2022/04/16 10:53:43;;;;;;;2.15;1.13;;;;;;;;;;5075143;28;20040;-77
2022/04/16 10:56:13;;;;;;;4.05;1.92;;;;;;;;;;5075501;28;20377;-76
2022/04/16 10:58:46;;;;;;;1.13;0.90;;;;;;;;;;5074685;28;20063;-77
2022/04/16 11:01:13;;;;;;;1.85;1.00;;;;;;;;;;5074867;28;20052;-77
2022/04/16 11:03:46;;;;;;;0.80;0.80;;;;;;;;;;5058647;28;20781;-78
2022/04/16 11:06:12;;;;;;;2.35;1.35;;;;;;;;;;5075204;28;20036;-78
2022/04/16 11:08:39;;;;;;;2.00;0.93;;;;;;;;;;5057563;28;20388;-77
2022/04/16 11:11:05;;;;;;;1.60;1.02;;;;;;;;;;5074838;28;20040;-77
2022/04/16 11:13:32;;;;;;;1.10;1.00;;;;;;;;;;5058464;28;20143;-77
2022/04/16 11:16:01;;;;;;;1.92;1.02;;;;;;;;;;5075064;28;20036;-76
2022/04/16 11:18:41;;;;;;;2.05;0.80;;;;;;;;;;5057294;28;20093;-76
2022/04/16 11:21:29;;;;;;;3.08;1.08;;;;;;;;;;5074590;28;20044;-76
2022/04/16 11:23:55;;;;;;;2.58;1.10;;;;;;;;;;5074689;28;20119;-76
2022/04/16 11:34:45;;;;;;;3.10;1.73;;;;;;;;;;5074740;28;20039;-76
2022/04/16 11:37:14;;;;;;;2.00;1.10;;;;;;;;;;5057885;28;20490;-75
2022/04/16 11:39:40;;;;;;;1.08;0.82;;;;;;;;;;5074828;28;20040;-77
2022/04/16 11:42:10;;;;;;;1.35;1.10;;;;;;;;;;5057781;28;20093;-76
2022/04/16 11:44:42;;;;;;;1.95;1.13;;;;;;;;;;5074261;28;20059;-77
2022/04/16 11:47:08;;;;;;;7.30;4.00;;;;;;;;;;5074350;28;20043;-77
2022/04/16 11:49:39;;;;;;;6.15;1.45;;;;;;;;;;5057896;28;20122;-78
2022/04/16 11:52:05;;;;;;;1.17;0.95;;;;;;;;;;5074590;28;20071;-78
2022/04/16 11:54:31;;;;;;;3.00;0.85;;;;;;;;;;5074866;28;20036;-76
2022/04/16 11:56:58;;;;;;;2.60;0.90;;;;;;;;;;5057894;28;20063;-75
2022/04/16 11:59:24;;;;;;;1.08;0.90;;;;;;;;;;5074289;28;20090;-75
2022/04/16 12:01:58;;;;;;;1.98;1.10;;;;;;;;;;5073969;28;20065;-75
2022/04/16 12:04:53;;;;;;;1.13;1.00;;;;;;;;;;5056881;28;20454;-75
2022/04/16 12:07:20;;;;;;;4.70;1.27;;;;;;;;;;5057335;28;20139;-77
2022/04/16 12:09:47;;;;;;;1.00;0.73;;;;;;;;;;5058412;28;20507;-76
2022/04/16 12:12:17;;;;;;;0.80;0.77;;;;;;;;;;5061848;28;20046;-78
2022/04/16 12:14:50;;;;;;;1.25;1.00;;;;;;;;;;5078052;28;20089;-75
2022/04/16 12:17:24;;;;;;;1.20;1.10;;;;;;;;;;5077898;28;20403;-76
2022/04/16 12:19:57;;;;;;;2.15;1.10;;;;;;;;;;5061487;28;20108;-77
2022/04/16 12:22:23;;;;;;;2.22;1.25;;;;;;;;;;5078010;28;20044;-76
2022/04/16 12:24:49;;;;;;;1.38;0.98;;;;;;;;;;5061664;28;20109;-76
2022/04/16 12:27:27;;;;;;;2.25;1.15;;;;;;;;;;5061386;28;20036;-80
2022/04/16 12:29:59;;;;;;;3.42;1.40;;;;;;;;;;5078560;28;20384;-77
2022/04/16 12:32:26;;;;;;;2.40;0.90;;;;;;;;;;5061543;28;20043;-77
2022/04/16 12:34:52;;;;;;;1.00;0.90;;;;;;;;;;5077506;28;20048;-79
2022/04/16 12:37:18;;;;;;;1.10;0.93;;;;;;;;;;5060423;28;20055;-79
2022/04/16 12:39:44;;;;;;;1.55;1.17;;;;;;;;;;5060254;28;20051;-77
2022/04/16 12:42:10;;;;;;;1.50;1.27;;;;;;;;;;5059078;27;20217;-80
2022/04/16 12:44:36;;;;;;;1.00;1.00;;;;;;;;;;5096406;28;20062;-77
2022/04/16 12:47:02;;;;;;;2.85;1.00;;;;;;;;;;5080467;28;20149;-78
2022/04/16 12:49:28;;;;;;;1.10;0.95;;;;;;;;;;5080521;28;20415;-79
2022/04/16 12:51:54;;;;;;;2.08;0.70;;;;;;;;;;5097030;28;20043;-76
2022/04/16 12:54:20;;;;;;;1.35;0.90;;;;;;;;;;5079980;28;20048;-76
2022/04/16 12:56:47;;;;;;;1.13;1.00;;;;;;;;;;5080349;28;20047;-76
2022/04/16 12:59:16;;;;;;;1.48;1.00;;;;;;;;;;5080250;28;20043;-78
2022/04/16 13:01:42;;;;;;;1.30;1.20;;;;;;;;;;5080108;28;20043;-77
2022/04/16 13:04:08;;;;;;;1.83;0.93;;;;;;;;;;5096895;28;20035;-77
2022/04/16 13:06:34;;;;;;;1.00;0.80;;;;;;;;;;5096624;28;20085;-77
2022/04/16 13:09:02;;;;;;;2.25;1.15;;;;;;;;;;5080754;28;20109;-76
2022/04/16 13:11:28;;;;;;;2.45;1.00;;;;;;;;;;5080524;28;20118;-78
2022/04/16 13:13:54;;;;;;;2.10;1.00;;;;;;;;;;5080747;28;20069;-78
2022/04/16 13:16:20;;;;;;;1.38;1.10;;;;;;;;;;5080371;28;20054;-77
2022/04/16 13:18:48;;;;;;;1.52;1.42;;;;;;;;;;5080636;28;20039;-77
2022/04/16 13:21:15;;;;;;;2.08;1.20;;;;;;;;;;5096676;28;20050;-76
2022/04/16 13:23:40;;;;;;;1.35;1.20;;;;;;;;;;5097204;28;20043;-77
2022/04/16 13:26:06;;;;;;;1.25;1.00;;;;;;;;;;5097400;28;20395;-76
2022/04/16 13:28:32;;;;;;;1.52;0.93;;;;;;;;;;5097049;28;20436;-78
2022/04/16 13:30:58;;;;;;;2.70;1.20;;;;;;;;;;5097814;28;20439;-80
2022/04/16 13:33:24;;;;;;;10.38;2.00;;;;;;;;;;5080615;28;20040;-78
2022/04/16 13:35:50;;;;;;;7.57;1.42;;;;;;;;;;5097046;28;20047;-77
2022/04/16 13:38:16;;;;;;;3.97;1.10;;;;;;;;;;5080506;28;20066;-77
2022/04/16 13:43:27;;;;;;;1.00;0.90;;;;;;;;;;5096747;28;20056;-79
2022/04/16 13:45:53;;;;;;;2.65;1.00;;;;;;;;;;5079986;28;20124;-78
2022/04/16 13:48:19;;;;;;;3.42;1.00;;;;;;;;;;5080055;28;20078;-77
2022/04/16 13:50:45;;;;;;;1.95;1.02;;;;;;;;;;5096832;28;20055;-79
2022/04/16 13:53:11;;;;;;;5.22;1.02;;;;;;;;;;5080011;28;20040;-77
2022/04/16 13:55:37;;;;;;;1.30;0.95;;;;;;;;;;5096598;28;20043;-77
2022/04/16 13:58:03;;;;;;;2.08;1.33;;;;;;;;;;5079309;28;20046;-78
2022/04/16 14:00:29;;;;;;;4.03;1.20;;;;;;;;;;5095081;28;20075;-76
2022/04/16 14:02:55;;;;;;;2.35;1.02;;;;;;;;;;5092775;28;20043;-77
2022/04/16 14:08:06;;;;;;;1.95;0.90;;;;;;;;;;5092851;28;20469;-76
2022/04/16 14:10:32;;;;;;;4.05;1.33;;;;;;;;;;5092994;28;20039;-77
2022/04/16 14:12:58;;;;;;;1.35;0.98;;;;;;;;;;5076725;28;20038;-76
2022/04/16 14:15:24;;;;;;;1.60;1.00;;;;;;;;;;5075575;28;20054;-76
2022/04/16 14:17:51;;;;;;;2.38;1.10;;;;;;;;;;5074967;28;20054;-77
2022/04/16 14:20:17;;;;;;;1.50;1.40;;;;;;;;;;5092284;28;20050;-77
2022/04/16 14:22:44;;;;;;;1.80;0.93;;;;;;;;;;5075438;28;20058;-76
2022/04/16 14:25:10;;;;;;;2.47;1.35;;;;;;;;;;5092410;28;20043;-77
2022/04/16 14:27:37;;;;;;;2.05;1.45;;;;;;;;;;5075573;28;20044;-78
2022/04/16 14:30:03;;;;;;;1.10;0.88;;;;;;;;;;5075636;28;20038;-77
2022/04/16 14:32:29;;;;;;;1.67;1.10;;;;;;;;;;5078310;28;20126;-77
2022/04/16 14:34:55;;;;;;;2.58;1.00;;;;;;;;;;5077764;28;20036;-75
2022/04/16 14:37:21;;;;;;;3.28;1.20;;;;;;;;;;5095148;28;20042;-77
2022/04/16 14:39:47;;;;;;;1.23;0.90;;;;;;;;;;5078151;28;20031;-75
2022/04/16 14:42:13;;;;;;;3.05;1.23;;;;;;;;;;5094689;28;20040;-75
2022/04/16 14:44:51;;;;;;;1.23;1.08;;;;;;;;;;5077588;28;20496;-78
2022/04/16 14:47:17;;;;;;;2.10;1.33;;;;;;;;;;5078542;28;20100;-77
2022/04/16 14:49:43;;;;;;;1.42;1.08;;;;;;;;;;5078365;28;20479;-77
2022/04/16 14:52:11;;;;;;;1.20;1.10;;;;;;;;;;5078079;28;20096;-79
2022/04/16 14:54:37;;;;;;;1.65;1.33;;;;;;;;;;5078312;28;20068;-78
2022/04/16 14:57:03;;;;;;;2.42;1.98;;;;;;;;;;5078263;28;20054;-79
2022/04/16 14:59:29;;;;;;;1.40;0.93;;;;;;;;;;5094877;28;20514;-77